Observation data for Reese Center on 01/20/2019      Previous  Date  Next       Current Mesonet Observations  Soil Data  Daily Summary Page  Observations in Plain Language
KREE 200600Z 16005KT M01/M06 A3029 RMK A01 T10051055  RH  070%=      5-min Rain = 0
KREE 200605Z 15006KT M01/M06 A3028 RMK A01 T10051055  RH  069%=      5-min Rain = 0
KREE 200610Z 15006KT M01/M06 A3028 RMK A01 T10051056  RH  069%=      5-min Rain = 0
KREE 200615Z 14007KT M01/M06 A3028 RMK A01 T10051056  RH  069%=      5-min Rain = 0
KREE 200620Z 14007KT M01/M06 A3028 RMK A01 T10051057  RH  069%=      5-min Rain = 0
KREE 200625Z 15007KT M01/M06 A3028 RMK A01 T10061055  RH  070%=      5-min Rain = 0
KREE 200630Z 16007KT M01/M06 A3028 RMK A01 T10051055  RH  070%=      5-min Rain = 0
KREE 200635Z 16008KT M01/M05 A3028 RMK A01 T10051054  RH  070%=      5-min Rain = 0
KREE 200640Z 16008KT M01/M05 A3029 RMK A01 T10071054  RH  071%=      5-min Rain = 0
KREE 200645Z 16008KT M01/M05 A3029 RMK A01 T10081054  RH  072%=      5-min Rain = 0
KREE 200650Z 16007KT M01/M06 A3029 RMK A01 T10091055  RH  072%=      5-min Rain = 0
KREE 200655Z 17007KT M01/M06 A3028 RMK A01 T10131057  RH  073%=      5-min Rain = 0
KREE 200700Z 17008KT M02/M06 A3028 RMK A01 T10161058  RH  074%=      5-min Rain = 0
KREE 200705Z 16007KT M02/M06 A3028 RMK A01 T10171058  RH  074%=      5-min Rain = 0
KREE 200710Z 16008KT M02/M06 A3028 RMK A01 T10161057  RH  075%=      5-min Rain = 0
KREE 200715Z 16007KT M02/M06 A3028 RMK A01 T10151055  RH  075%=      5-min Rain = 0
KREE 200720Z 16008KT M01/M05 A3028 RMK A01 T10131054  RH  074%=      5-min Rain = 0
KREE 200725Z 16008KT M01/M05 A3028 RMK A01 T10121054  RH  074%=      5-min Rain = 0
KREE 200730Z 17008KT M01/M05 A3028 RMK A01 T10121054  RH  074%=      5-min Rain = 0
KREE 200735Z 17008KT M01/M05 A3028 RMK A01 T10131054  RH  075%=      5-min Rain = 0
KREE 200740Z 16007KT M01/M05 A3028 RMK A01 T10131053  RH  075%=      5-min Rain = 0
KREE 200745Z 17007KT M02/M05 A3028 RMK A01 T10151054  RH  075%=      5-min Rain = 0
KREE 200750Z 17008KT M02/M06 A3028 RMK A01 T10171055  RH  076%=      5-min Rain = 0
KREE 200755Z 17007KT M02/M05 A3028 RMK A01 T10171054  RH  077%=      5-min Rain = 0
KREE 200800Z 16007KT M02/M05 A3027 RMK A01 T10171054  RH  077%=      5-min Rain = 0
KREE 200805Z 16006KT M02/M06 A3027 RMK A01 T10201055  RH  078%=      5-min Rain = 0
KREE 200810Z 17006KT M02/M05 A3027 RMK A01 T10191054  RH  078%=      5-min Rain = 0
KREE 200815Z 18006KT M02/M05 A3027 RMK A01 T10191054  RH  078%=      5-min Rain = 0
KREE 200820Z 17006KT M02/M05 A3027 RMK A01 T10181054  RH  078%=      5-min Rain = 0
KREE 200825Z 17006KT M02/M06 A3027 RMK A01 T10201055  RH  077%=      5-min Rain = 0
KREE 200830Z 18006KT M02/M06 A3027 RMK A01 T10221057  RH  078%=      5-min Rain = 0
KREE 200835Z 17006KT M02/M06 A3027 RMK A01 T10221057  RH  078%=      5-min Rain = 0
KREE 200840Z 16006KT M03/M06 A3027 RMK A01 T10251059  RH  078%=      5-min Rain = 0
KREE 200845Z 18007KT M02/M06 A3027 RMK A01 T10241058  RH  078%=      5-min Rain = 0
KREE 200850Z 17006KT M02/M06 A3027 RMK A01 T10211058  RH  077%=      5-min Rain = 0
KREE 200855Z 15006KT M03/M06 A3027 RMK A01 T10261060  RH  078%=      5-min Rain = 0
KREE 200900Z 17006KT M02/M06 A3027 RMK A01 T10241058  RH  079%=      5-min Rain = 0
KREE 200905Z 15005KT M02/M06 A3027 RMK A01 T10241059  RH  078%=      5-min Rain = 0
KREE 200910Z 15005KT M03/M06 A3028 RMK A01 T10271059  RH  079%=      5-min Rain = 0
KREE 200915Z 14006KT M03/M06 A3027 RMK A01 T10271059  RH  080%=      5-min Rain = 0
KREE 200920Z 14005KT M03/M06 A3028 RMK A01 T10281059  RH  080%=      5-min Rain = 0
KREE 200925Z 15006KT M03/M06 A3028 RMK A01 T10251057  RH  080%=      5-min Rain = 0
KREE 200930Z 15007KT M02/M06 A3028 RMK A01 T10231056  RH  079%=      5-min Rain = 0
KREE 200935Z 16007KT M02/M06 A3028 RMK A01 T10211055  RH  078%=      5-min Rain = 0
KREE 200940Z 16007KT M02/M06 A3027 RMK A01 T10191055  RH  077%=      5-min Rain = 0
KREE 200945Z 15007KT M02/M06 A3027 RMK A01 T10211055  RH  078%=      5-min Rain = 0
KREE 200950Z 16007KT M02/M06 A3027 RMK A01 T10211055  RH  078%=      5-min Rain = 0
KREE 200955Z 16007KT M02/M05 A3027 RMK A01 T10201054  RH  078%=      5-min Rain = 0
KREE 201000Z 16007KT M02/M06 A3027 RMK A01 T10211055  RH  078%=      5-min Rain = 0
KREE 201005Z 15007KT M02/M06 A3027 RMK A01 T10231056  RH  079%=      5-min Rain = 0
KREE 201010Z 16007KT M02/M06 A3026 RMK A01 T10231055  RH  080%=      5-min Rain = 0
KREE 201015Z 16006KT M02/M06 A3026 RMK A01 T10231056  RH  079%=      5-min Rain = 0
KREE 201020Z 15007KT M03/M06 A3026 RMK A01 T10261057  RH  080%=      5-min Rain = 0
KREE 201025Z 16007KT M02/M06 A3026 RMK A01 T10231056  RH  079%=      5-min Rain = 0
KREE 201030Z 15006KT M03/M06 A3026 RMK A01 T10261057  RH  080%=      5-min Rain = 0
KREE 201035Z 16006KT M03/M06 A3026 RMK A01 T10271057  RH  081%=      5-min Rain = 0
KREE 201040Z 16006KT M03/M06 A3026 RMK A01 T10261057  RH  080%=      5-min Rain = 0
KREE 201045Z 16006KT M03/M06 A3025 RMK A01 T10271057  RH  081%=      5-min Rain = 0
KREE 201050Z 15006KT M03/M06 A3025 RMK A01 T10281057  RH  081%=      5-min Rain = 0
KREE 201055Z 15006KT M03/M06 A3025 RMK A01 T10271057  RH  081%=      5-min Rain = 0
KREE 201100Z 16006KT M03/M06 A3025 RMK A01 T10261057  RH  080%=      5-min Rain = 0
KREE 201105Z 15006KT M03/M06 A3025 RMK A01 T10271057  RH  081%=      5-min Rain = 0
KREE 201110Z 15006KT M03/M06 A3025 RMK A01 T10271057  RH  081%=      5-min Rain = 0
KREE 201115Z 16006KT M03/M06 A3025 RMK A01 T10271057  RH  081%=      5-min Rain = 0
KREE 201120Z 16006KT M03/M06 A3025 RMK A01 T10281058  RH  081%=      5-min Rain = 0
KREE 201125Z 16006KT M03/M06 A3025 RMK A01 T10291059  RH  081%=      5-min Rain = 0
KREE 201130Z 16006KT M03/M06 A3025 RMK A01 T10291059  RH  081%=      5-min Rain = 0
KREE 201135Z 16006KT M03/M06 A3024 RMK A01 T10311060  RH  081%=      5-min Rain = 0
KREE 201140Z 16007KT M03/M06 A3024 RMK A01 T10331060  RH  082%=      5-min Rain = 0
KREE 201145Z 16006KT M03/M06 A3024 RMK A01 T10341061  RH  083%=      5-min Rain = 0
KREE 201150Z 16006KT M04/M06 A3024 RMK A01 T10361062  RH  083%=      5-min Rain = 0
KREE 201155Z 16006KT M03/M06 A3023 RMK A01 T10341061  RH  083%=      5-min Rain = 0
KREE 201200Z 16006KT M03/M06 A3023 RMK A01 T10341060  RH  083%=      5-min Rain = 0
KREE 201205Z 15006KT M03/M06 A3024 RMK A01 T10331059  RH  083%=      5-min Rain = 0
KREE 201210Z 16006KT M03/M06 A3024 RMK A01 T10321059  RH  083%=      5-min Rain = 0
KREE 201215Z 16006KT M03/M06 A3024 RMK A01 T10301058  RH  082%=      5-min Rain = 0
KREE 201220Z 16006KT M03/M06 A3024 RMK A01 T10311059  RH  082%=      5-min Rain = 0
KREE 201225Z 17007KT M03/M06 A3024 RMK A01 T10321059  RH  083%=      5-min Rain = 0
KREE 201230Z 17008KT M03/M06 A3023 RMK A01 T10331059  RH  083%=      5-min Rain = 0
KREE 201235Z 17008KT M03/M06 A3023 RMK A01 T10321058  RH  083%=      5-min Rain = 0
KREE 201240Z 17008KT M03/M06 A3023 RMK A01 T10331059  RH  083%=      5-min Rain = 0
KREE 201245Z 17008KT M03/M06 A3023 RMK A01 T10331058  RH  084%=      5-min Rain = 0
KREE 201250Z 17007KT M03/M06 A3023 RMK A01 T10321058  RH  083%=      5-min Rain = 0
KREE 201255Z 17006KT M03/M06 A3023 RMK A01 T10341059  RH  084%=      5-min Rain = 0
KREE 201300Z 18007KT M03/M06 A3023 RMK A01 T10341058  RH  084%=      5-min Rain = 0
KREE 201305Z 18006KT M03/M06 A3023 RMK A01 T10341058  RH  084%=      5-min Rain = 0
KREE 201310Z 17006KT M03/M06 A3023 RMK A01 T10341059  RH  084%=      5-min Rain = 0
KREE 201315Z 17007KT M04/M06 A3023 RMK A01 T10351060  RH  084%=      5-min Rain = 0
KREE 201320Z 18006KT M04/M06 A3023 RMK A01 T10351060  RH  084%=      5-min Rain = 0
KREE 201325Z 18005KT M04/M06 A3024 RMK A01 T10381062  RH  084%=      5-min Rain = 0
KREE 201330Z 19006KT M04/M06 A3024 RMK A01 T10391063  RH  084%=      5-min Rain = 0
KREE 201335Z 20006KT M04/M07 A3024 RMK A01 T10411065  RH  084%=      5-min Rain = 0
KREE 201340Z 20006KT M04/M07 A3024 RMK A01 T10431065  RH  085%=      5-min Rain = 0
KREE 201345Z 20006KT M04/M07 A3024 RMK A01 T10441067  RH  085%=      5-min Rain = 0
KREE 201350Z 20006KT M05/M07 A3024 RMK A01 T10471068  RH  086%=      5-min Rain = 0
KREE 201355Z 20006KT M05/M07 A3024 RMK A01 T10471068  RH  086%=      5-min Rain = 0
KREE 201400Z 19007KT M05/M07 A3024 RMK A01 T10451067  RH  086%=      5-min Rain = 0
KREE 201405Z 19007KT M04/M07 A3024 RMK A01 T10441066  RH  086%=      5-min Rain = 0
KREE 201410Z 20007KT M04/M07 A3024 RMK A01 T10431065  RH  086%=      5-min Rain = 0
KREE 201415Z 20007KT M04/M06 A3024 RMK A01 T10421064  RH  086%=      5-min Rain = 0
KREE 201420Z 19006KT M04/M06 A3024 RMK A01 T10401062  RH  085%=      5-min Rain = 0
KREE 201425Z 19006KT M04/M06 A3024 RMK A01 T10381061  RH  085%=      5-min Rain = 0
KREE 201430Z 19007KT M04/M06 A3024 RMK A01 T10351060  RH  084%=      5-min Rain = 0
KREE 201435Z 19007KT M03/M06 A3024 RMK A01 T10301056  RH  083%=      5-min Rain = 0
KREE 201440Z 19007KT M02/M05 A3024 RMK A01 T10241053  RH  082%=      5-min Rain = 0
KREE 201445Z 19008KT M02/M05 A3023 RMK A01 T10221052  RH  081%=      5-min Rain = 0
KREE 201450Z 19008KT M02/M05 A3023 RMK A01 T10201050  RH  081%=      5-min Rain = 0
KREE 201455Z 19008KT M02/M05 A3023 RMK A01 T10181049  RH  080%=      5-min Rain = 0
KREE 201500Z 19008KT M02/M05 A3023 RMK A01 T10151047  RH  079%=      5-min Rain = 0
KREE 201505Z 19009KT M01/M05 A3023 RMK A01 T10101046  RH  077%=      5-min Rain = 0
KREE 201510Z 19009KT M01/M04 A3023 RMK A01 T10061044  RH  076%=      5-min Rain = 0
KREE 201515Z 20008KT M00/M04 A3023 RMK A01 T10021043  RH  075%=      5-min Rain = 0
KREE 201520Z 19008KT 00/M04 A3023 RMK A01 T00031041  RH  073%=      5-min Rain = 0
KREE 201525Z 19008KT 01/M04 A3024 RMK A01 T00061040  RH  072%=      5-min Rain = 0
KREE 201530Z 19009G14KT 01/M04 A3024 RMK A01 T00111039  RH  070%=      5-min Rain = 0
KREE 201535Z 19010KT 02/M04 A3024 RMK A01 T00151039  RH  068%=      5-min Rain = 0
KREE 201540Z 19012KT 02/M04 A3024 RMK A01 T00171039  RH  067%=      5-min Rain = 0
KREE 201545Z 20012KT 02/M04 A3024 RMK A01 T00191039  RH  066%=      5-min Rain = 0
KREE 201550Z 20011KT 02/M04 A3024 RMK A01 T00221037  RH  066%=      5-min Rain = 0
KREE 201555Z 20013KT 03/M04 A3024 RMK A01 T00251037  RH  064%=      5-min Rain = 0
KREE 201600Z 20016KT 03/M04 A3024 RMK A01 T00271039  RH  062%=      5-min Rain = 0
KREE 201605Z 19015KT 03/M04 A3023 RMK A01 T00281039  RH  062%=      5-min Rain = 0
KREE 201610Z 19014KT 03/M04 A3023 RMK A01 T00331036  RH  061%=      5-min Rain = 0
KREE 201615Z 19014KT 03/M04 A3023 RMK A01 T00331038  RH  060%=      5-min Rain = 0
KREE 201620Z 19014KT 04/M04 A3023 RMK A01 T00361037  RH  060%=      5-min Rain = 0
KREE 201625Z 19013KT 04/M04 A3023 RMK A01 T00411035  RH  058%=      5-min Rain = 0
KREE 201630Z 20013KT 04/M04 A3023 RMK A01 T00421035  RH  058%=      5-min Rain = 0
KREE 201635Z 20014KT 05/M04 A3023 RMK A01 T00451035  RH  057%=      5-min Rain = 0
KREE 201640Z 20015KT 05/M04 A3023 RMK A01 T00481035  RH  055%=      5-min Rain = 0
KREE 201645Z 20014KT 05/M03 A3023 RMK A01 T00521034  RH  054%=      5-min Rain = 0
KREE 201650Z 20013KT 06/M03 A3023 RMK A01 T00551034  RH  053%=      5-min Rain = 0
KREE 201655Z 20014KT 06/M03 A3023 RMK A01 T00571034  RH  053%=      5-min Rain = 0
KREE 201700Z 20014KT 06/M03 A3023 RMK A01 T00601033  RH  052%=      5-min Rain = 0
KREE 201705Z 21013G18KT 07/M03 A3023 RMK A01 T00661032  RH  050%=      5-min Rain = 0
KREE 201710Z 21013G18KT 07/M03 A3022 RMK A01 T00711032  RH  049%=      5-min Rain = 0
KREE 201715Z 20015KT 07/M03 A3022 RMK A01 T00701033  RH  048%=      5-min Rain = 0
KREE 201720Z 20014KT 07/M03 A3022 RMK A01 T00731033  RH  048%=      5-min Rain = 0
KREE 201725Z 20015KT 08/M03 A3021 RMK A01 T00761033  RH  047%=      5-min Rain = 0
KREE 201730Z 21014KT 08/M03 A3021 RMK A01 T00811033  RH  045%=      5-min Rain = 0
KREE 201735Z 21015KT 08/M03 A3021 RMK A01 T00821033  RH  044%=      5-min Rain = 0
KREE 201740Z 21015KT 08/M03 A3021 RMK A01 T00841033  RH  044%=      5-min Rain = 0
KREE 201745Z 21014KT 09/M03 A3021 RMK A01 T00871033  RH  043%=      5-min Rain = 0
KREE 201750Z 21014KT 09/M03 A302 RMK A01 T00931032  RH  042%=      5-min Rain = 0
KREE 201755Z 21015KT 10/M04 A302 RMK A01 T00951035  RH  040%=      5-min Rain = 0
KREE 201800Z 21014KT 10/M03 A302 RMK A01 T00971034  RH  040%=      5-min Rain = 0
KREE 201805Z 21014KT 10/M04 A302 RMK A01 T00991035  RH  039%=      5-min Rain = 0
KREE 201810Z 21015KT 10/M04 A3019 RMK A01 T01001037  RH  038%=      5-min Rain = 0
KREE 201815Z 21013G18KT 10/M04 A3019 RMK A01 T01041036  RH  038%=      5-min Rain = 0
KREE 201820Z 21013KT 11/M04 A3019 RMK A01 T01051037  RH  037%=      5-min Rain = 0
KREE 201825Z 21012KT 11/M03 A3018 RMK A01 T01111034  RH  036%=      5-min Rain = 0
KREE 201830Z 21013KT 11/M04 A3018 RMK A01 T01101036  RH  036%=      5-min Rain = 0
KREE 201835Z 21013KT 11/M04 A3018 RMK A01 T01141037  RH  035%=      5-min Rain = 0
KREE 201840Z 21013KT 12/M04 A3017 RMK A01 T01171037  RH  034%=      5-min Rain = 0
KREE 201845Z 22012KT 12/M04 A3017 RMK A01 T01191038  RH  034%=      5-min Rain = 0
KREE 201850Z 22014KT 12/M04 A3016 RMK A01 T01211042  RH  032%=      5-min Rain = 0
KREE 201855Z 22013KT 12/M04 A3016 RMK A01 T01211044  RH  032%=      5-min Rain = 0
KREE 201900Z 23012G17KT 13/M04 A3015 RMK A01 T01261043  RH  031%=      5-min Rain = 0
KREE 201905Z 23013KT 13/M05 A3015 RMK A01 T01261045  RH  030%=      5-min Rain = 0
KREE 201910Z 22014KT 12/M04 A3015 RMK A01 T01221044  RH  032%=      5-min Rain = 0
KREE 201915Z 22014KT 13/M05 A3014 RMK A01 T01251045  RH  031%=      5-min Rain = 0
KREE 201920Z 21014KT 13/M05 A3014 RMK A01 T01291045  RH  030%=      5-min Rain = 0
KREE 201925Z 21014G19KT 14/M05 A3013 RMK A01 T01361046  RH  028%=      5-min Rain = 0
KREE 201930Z 22013G18KT 14/M05 A3013 RMK A01 T01411047  RH  027%=      5-min Rain = 0
KREE 201935Z 21014KT 14/M05 A3013 RMK A01 T01431047  RH  027%=      5-min Rain = 0
KREE 201940Z 22014G19KT 14/M05 A3012 RMK A01 T01441049  RH  026%=      5-min Rain = 0
KREE 201945Z 21015KT 15/M05 A3012 RMK A01 T01521048  RH  025%=      5-min Rain = 0
KREE 201950Z 22013KT 15/M05 A3012 RMK A01 T01491052  RH  025%=      5-min Rain = 0
KREE 201955Z 22013G21KT 15/M05 A3011 RMK A01 T01541054  RH  024%=      5-min Rain = 0
KREE 202000Z 22014G19KT 16/M06 A301 RMK A01 T01571058  RH  022%=      5-min Rain = 0
KREE 202005Z 22015G20KT 16/M06 A301 RMK A01 T01591060  RH  022%=      5-min Rain = 0
KREE 202010Z 21015KT 16/M06 A301 RMK A01 T01601059  RH  022%=      5-min Rain = 0
KREE 202015Z 21014G19KT 17/M06 A3009 RMK A01 T01671058  RH  021%=      5-min Rain = 0
KREE 202020Z 22015KT 17/M06 A3009 RMK A01 T01691063  RH  020%=      5-min Rain = 0
KREE 202025Z 23014G19KT 17/M06 A3009 RMK A01 T01741061  RH  020%=      5-min Rain = 0
KREE 202030Z 21014G19KT 17/M06 A3009 RMK A01 T01711060  RH  020%=      5-min Rain = 0
KREE 202035Z 21014KT 17/M06 A3009 RMK A01 T01711060  RH  020%=      5-min Rain = 0
KREE 202040Z 22014G20KT 17/M06 A3009 RMK A01 T01681061  RH  020%=      5-min Rain = 0
KREE 202045Z 22014G19KT 17/M06 A3009 RMK A01 T01731060  RH  020%=      5-min Rain = 0
KREE 202050Z 22015G20KT 17/M06 A3008 RMK A01 T01721063  RH  020%=      5-min Rain = 0
KREE 202055Z 21015G20KT 17/M07 A3008 RMK A01 T01731066  RH  019%=      5-min Rain = 0
KREE 202100Z 21015G20KT 17/M07 A3007 RMK A01 T01741067  RH  019%=      5-min Rain = 0
KREE 202105Z 22014KT 17/M07 A3007 RMK A01 T01731069  RH  019%=      5-min Rain = 0
KREE 202110Z 20014KT 17/M07 A3007 RMK A01 T01741066  RH  019%=      5-min Rain = 0
KREE 202115Z 21015KT 17/M06 A3007 RMK A01 T01711064  RH  020%=      5-min Rain = 0
KREE 202120Z 21014G19KT 17/M06 A3007 RMK A01 T01701061  RH  020%=      5-min Rain = 0
KREE 202125Z 21013G18KT 17/M06 A3007 RMK A01 T01721060  RH  020%=      5-min Rain = 0
KREE 202130Z 21013KT 17/M06 A3007 RMK A01 T01721062  RH  020%=      5-min Rain = 0
KREE 202135Z 20013KT 17/M06 A3007 RMK A01 T01711061  RH  020%=      5-min Rain = 0
KREE 202140Z 21013KT 17/M06 A3007 RMK A01 T01731061  RH  020%=      5-min Rain = 0
KREE 202145Z 20013KT 17/M06 A3007 RMK A01 T01721059  RH  020%=      5-min Rain = 0
KREE 202150Z 20013KT 17/M06 A3006 RMK A01 T01721061  RH  020%=      5-min Rain = 0
KREE 202155Z 20014KT 17/M06 A3006 RMK A01 T01701060  RH  020%=      5-min Rain = 0
KREE 202200Z 19013KT 17/M06 A3006 RMK A01 T01701060  RH  020%=      5-min Rain = 0
KREE 202205Z 20013KT 17/M06 A3006 RMK A01 T01711061  RH  020%=      5-min Rain = 0
KREE 202210Z 19014KT 17/M06 A3006 RMK A01 T01701062  RH  020%=      5-min Rain = 0
KREE 202215Z 20014KT 17/M06 A3006 RMK A01 T01701064  RH  020%=      5-min Rain = 0
KREE 202220Z 21013G18KT 17/M06 A3006 RMK A01 T01731064  RH  019%=      5-min Rain = 0
KREE 202225Z 20013G18KT 17/M07 A3006 RMK A01 T01711067  RH  019%=      5-min Rain = 0
KREE 202230Z 20014KT 17/M07 A3006 RMK A01 T01691068  RH  019%=      5-min Rain = 0
KREE 202235Z 20013KT 17/M07 A3006 RMK A01 T01701068  RH  019%=      5-min Rain = 0
KREE 202240Z 19012KT 17/M07 A3006 RMK A01 T01701068  RH  019%=      5-min Rain = 0
KREE 202245Z 20012KT 17/M07 A3006 RMK A01 T01681069  RH  019%=      5-min Rain = 0
KREE 202250Z 20013KT 17/M07 A3006 RMK A01 T01681069  RH  019%=      5-min Rain = 0
KREE 202255Z 20013KT 17/M07 A3006 RMK A01 T01651071  RH  019%=      5-min Rain = 0
KREE 202300Z 20012KT 16/M07 A3006 RMK A01 T01621070  RH  020%=      5-min Rain = 0
KREE 202305Z 20011KT 16/M07 A3006 RMK A01 T01591070  RH  020%=      5-min Rain = 0
KREE 202310Z 19010KT 16/M07 A3006 RMK A01 T01581069  RH  021%=      5-min Rain = 0
KREE 202315Z 19009KT 15/M07 A3006 RMK A01 T01541069  RH  021%=      5-min Rain = 0
KREE 202320Z 19009KT 15/M07 A3006 RMK A01 T01491070  RH  022%=      5-min Rain = 0
KREE 202325Z 19009KT 15/M07 A3005 RMK A01 T01471070  RH  022%=      5-min Rain = 0
KREE 202330Z 18009KT 14/M07 A3005 RMK A01 T01441070  RH  022%=      5-min Rain = 0
KREE 202335Z 18010KT 14/M07 A3005 RMK A01 T01401070  RH  023%=      5-min Rain = 0
KREE 202340Z 18010KT 14/M07 A3004 RMK A01 T01361071  RH  023%=      5-min Rain = 0
KREE 202345Z 18009KT 13/M07 A3004 RMK A01 T01331071  RH  024%=      5-min Rain = 0
KREE 202350Z 18009KT 13/M07 A3004 RMK A01 T01281069  RH  025%=      5-min Rain = 0
KREE 202355Z 18009KT 12/M07 A3004 RMK A01 T01231067  RH  026%=      5-min Rain = 0
KREE 210000Z 18009KT 12/M07 A3004 RMK A01 T01191065  RH  027%=      5-min Rain = 0
KREE 210005Z 18009KT 12/M06 A3004 RMK A01 T01151064  RH  028%=      5-min Rain = 0
KREE 210010Z 18010KT 11/M07 A3004 RMK A01 T01111065  RH  029%=      5-min Rain = 0
KREE 210015Z 18010KT 11/M07 A3004 RMK A01 T01101066  RH  029%=      5-min Rain = 0
KREE 210020Z 18010KT 11/M07 A3004 RMK A01 T01081066  RH  029%=      5-min Rain = 0
KREE 210025Z 18010KT 10/M07 A3004 RMK A01 T01031066  RH  030%=      5-min Rain = 0
KREE 210030Z 18010KT 10/M07 A3004 RMK A01 T01001067  RH  031%=      5-min Rain = 0
KREE 210035Z 18010KT 10/M07 A3004 RMK A01 T01011068  RH  030%=      5-min Rain = 0
KREE 210040Z 18010KT 10/M07 A3004 RMK A01 T01021069  RH  030%=      5-min Rain = 0
KREE 210045Z 18010KT 10/M07 A3004 RMK A01 T00971068  RH  031%=      5-min Rain = 0
KREE 210050Z 18010KT 09/M07 A3004 RMK A01 T00941068  RH  032%=      5-min Rain = 0
KREE 210055Z 18010KT 09/M07 A3004 RMK A01 T00941069  RH  031%=      5-min Rain = 0
KREE 210100Z 18011KT 09/M07 A3004 RMK A01 T00911069  RH  032%=      5-min Rain = 0
KREE 210105Z 18012KT 09/M07 A3004 RMK A01 T00921069  RH  032%=      5-min Rain = 0
KREE 210110Z 18012KT 10/M07 A3004 RMK A01 T00951070  RH  031%=      5-min Rain = 0
KREE 210115Z 18012KT 10/M07 A3004 RMK A01 T00981070  RH  030%=      5-min Rain = 0
KREE 210120Z 18012KT 10/M07 A3004 RMK A01 T00981071  RH  030%=      5-min Rain = 0
KREE 210125Z 18012KT 10/M07 A3004 RMK A01 T00981071  RH  030%=      5-min Rain = 0
KREE 210130Z 18011KT 09/M07 A3004 RMK A01 T00941071  RH  031%=      5-min Rain = 0
KREE 210135Z 18011KT 09/M07 A3004 RMK A01 T00911071  RH  031%=      5-min Rain = 0
KREE 210140Z 18010KT 09/M07 A3003 RMK A01 T00881071  RH  032%=      5-min Rain = 0
KREE 210145Z 18010KT 08/M07 A3003 RMK A01 T00831072  RH  033%=      5-min Rain = 0
KREE 210150Z 18009KT 08/M07 A3003 RMK A01 T00791071  RH  034%=      5-min Rain = 0
KREE 210155Z 18009KT 08/M07 A3003 RMK A01 T00771072  RH  034%=      5-min Rain = 0
KREE 210200Z 18009KT 07/M07 A3003 RMK A01 T00741073  RH  035%=      5-min Rain = 0
KREE 210205Z 18009KT 07/M07 A3003 RMK A01 T00721072  RH  035%=      5-min Rain = 0
KREE 210210Z 18009KT 07/M07 A3002 RMK A01 T00691072  RH  036%=      5-min Rain = 0
KREE 210215Z 18009KT 07/M07 A3002 RMK A01 T00671072  RH  037%=      5-min Rain = 0
KREE 210220Z 19009KT 07/M07 A3002 RMK A01 T00651072  RH  038%=      5-min Rain = 0
KREE 210225Z 19009KT 07/M07 A3002 RMK A01 T00651071  RH  037%=      5-min Rain = 0
KREE 210230Z 19009KT 06/M07 A3002 RMK A01 T00641071  RH  038%=      5-min Rain = 0
KREE 210235Z 19010KT 07/M07 A3002 RMK A01 T00651070  RH  038%=      5-min Rain = 0
KREE 210240Z 19010KT 07/M07 A3002 RMK A01 T00681070  RH  037%=      5-min Rain = 0
KREE 210245Z 19010KT 07/M07 A3002 RMK A01 T00681069  RH  037%=      5-min Rain = 0
KREE 210250Z 19010KT 07/M07 A3002 RMK A01 T00681069  RH  037%=      5-min Rain = 0
KREE 210255Z 19010KT 07/M07 A3002 RMK A01 T00681069  RH  037%=      5-min Rain = 0
KREE 210300Z 19010KT 07/M07 A3001 RMK A01 T00671068  RH  038%=      5-min Rain = 0
KREE 210305Z 19010KT 07/M07 A3001 RMK A01 T00681068  RH  038%=      5-min Rain = 0
KREE 210310Z 18010KT 07/M07 A3001 RMK A01 T00671068  RH  038%=      5-min Rain = 0
KREE 210315Z 18009KT 07/M07 A3001 RMK A01 T00651068  RH  038%=      5-min Rain = 0
KREE 210320Z 18010KT 06/M07 A3001 RMK A01 T00641067  RH  039%=      5-min Rain = 0
KREE 210325Z 18010KT 06/M07 A30 RMK A01 T00641067  RH  039%=      5-min Rain = 0
KREE 210330Z 18010KT 06/M07 A30 RMK A01 T00641067  RH  039%=      5-min Rain = 0
KREE 210335Z 18011KT 07/M07 A30 RMK A01 T00671067  RH  038%=      5-min Rain = 0
KREE 210340Z 19010KT 07/M07 A30 RMK A01 T00661067  RH  038%=      5-min Rain = 0
KREE 210345Z 18010KT 06/M07 A30 RMK A01 T00641067  RH  039%=      5-min Rain = 0
KREE 210350Z 18010KT 06/M07 A30 RMK A01 T00621067  RH  040%=      5-min Rain = 0
KREE 210355Z 19009KT 06/M07 A30 RMK A01 T00591068  RH  040%=      5-min Rain = 0
KREE 210400Z 19010KT 05/M07 A30 RMK A01 T00541068  RH  041%=      5-min Rain = 0
KREE 210405Z 19010KT 05/M07 A30 RMK A01 T00541067  RH  042%=      5-min Rain = 0
KREE 210410Z 19010KT 06/M06 A30 RMK A01 T00571064  RH  042%=      5-min Rain = 0
KREE 210415Z 20011KT 06/M06 A30 RMK A01 T00581061  RH  043%=      5-min Rain = 0
KREE 210420Z 20011KT 06/M06 A30 RMK A01 T00581060  RH  043%=      5-min Rain = 0
KREE 210425Z 20013KT 06/M06 A30 RMK A01 T00591059  RH  043%=      5-min Rain = 0
KREE 210430Z 20013KT 06/M06 A30 RMK A01 T00601056  RH  043%=      5-min Rain = 0
KREE 210435Z 21013KT 06/M05 A30 RMK A01 T00601054  RH  044%=      5-min Rain = 0
KREE 210440Z 21012KT 06/M05 A3001 RMK A01 T00571053  RH  045%=      5-min Rain = 0
KREE 210445Z 21012KT 05/M05 A3001 RMK A01 T00541053  RH  047%=      5-min Rain = 0
KREE 210450Z 21012KT 05/M05 A3001 RMK A01 T00531050  RH  048%=      5-min Rain = 0
KREE 210455Z 20012KT 05/M05 A3001 RMK A01 T00541047  RH  049%=      5-min Rain = 0
KREE 210500Z 20011KT 05/M05 A3001 RMK A01 T00541045  RH  050%=      5-min Rain = 0
KREE 210505Z 20012KT 06/M04 A30 RMK A01 T00561041  RH  050%=      5-min Rain = 0
KREE 210510Z 20013KT 06/M04 A30 RMK A01 T00591038  RH  050%=      5-min Rain = 0
KREE 210515Z 20013KT 06/M04 A30 RMK A01 T00581037  RH  051%=      5-min Rain = 0
KREE 210520Z 21012KT 06/M04 A30 RMK A01 T00571036  RH  052%=      5-min Rain = 0
KREE 210525Z 21010KT 05/M04 A30 RMK A01 T00531037  RH  053%=      5-min Rain = 0
KREE 210530Z 21010KT 05/M04 A30 RMK A01 T00481038  RH  054%=      5-min Rain = 0
KREE 210535Z 21010KT 05/M04 A30 RMK A01 T00451039  RH  055%=      5-min Rain = 0
KREE 210540Z 21010KT 04/M04 A30 RMK A01 T00401041  RH  056%=      5-min Rain = 0
KREE 210545Z 21010KT 04/M04 A30 RMK A01 T00371042  RH  057%=      5-min Rain = 0
KREE 210550Z 20010KT 04/M04 A30 RMK A01 T00371042  RH  057%=      5-min Rain = 0
KREE 210555Z 20010KT 04/M04 A30 RMK A01 T00391041  RH  057%=      5-min Rain = 0

Page generated in 0.009 seconds.